Список аэропортов
Фактическая погода:

21 августа, 07:00
Температура: +18°C (+18.0*)
Ветер: юго-восточный 2 м/с
Давление: *766 мм
Без существ. явл.
Время (МСК)Темп. СВетерВлажностьДавлениеОблачностьОсадки
03:00+15ЮВ, 2 м/с91%1021 гПаясно
04:00+14ЮВ, 2 м/с92%1021 гПаясно
05:00+14ЮВ, 2 м/с92%1021 гПаясно
06:00+14ЮВ, 2 м/с88%1021 гПаясно
07:00+16Ю, 2 м/с80%1020 гПаясно
08:00+18ЮВ, 3 м/с68%1020 гПаясно
09:00+21ЮВ, 3 м/с57%1020 гПаясно
10:00+24ЮВ, 4 м/с48%1019 гПаясно
11:00+26ЮВ, 4 м/с42%1019 гПаясно
12:00+27ЮВ, 4 м/с39%1018 гПаясно
13:00+29ЮВ, 4 м/с34%1018 гПаясно
14:00+30Ю, 5 м/с32%1018 гПаясно
15:00+30Ю, 5 м/с31%1017 гПамалооблачно
16:00+29Ю, 5 м/с32%1016 гПамалооблачно
17:00+29ЮВ, 4 м/с30%1016 гПаясно
18:00+28ЮВ, 3 м/с38%1016 гПаясно
19:00+25ЮВ, 3 м/с51%1016 гПаясно
20:00+24ЮВ, 4 м/с56%1016 гПаясно
21:00+22ЮВ, 3 м/с61%1016 гПаясно
22:00+21ЮВ, 3 м/с68%1016 гПамалооблачно
23:00+21ЮВ, 4 м/с68%1016 гПаоблачно
22 августа
00:00+21ЮВ, 3 м/с70%1015 гПаоблачно
01:00+20ЮВ, 3 м/с74%1015 гПас прояснениями
02:00+19ЮВ, 3 м/с76%1015 гПаоблачно
03:00+19ЮВ, 3 м/с74%1015 гПаоблачно
04:00+19ЮВ, 3 м/с74%1015 гПаоблачно
05:00+19ЮВ, 4 м/с74%1015 гПаоблачносл. дождь
06:00+18ЮВ, 3 м/с79%1015 гПаоблачносл. дождь
07:00+18ЮВ, 4 м/с79%1015 гПаоблачносл. дождь
08:00+18ЮВ, 4 м/с76%1014 гПаоблачно
09:00+21ЮВ, 3 м/с65%1015 гПаоблачно
10:00+24ЮВ, 5 м/с52%1014 гПаоблачно
11:00+24ЮВ, 4 м/с54%1014 гПаоблачносл. дождь
12:00+25ЮВ, 5 м/с52%1014 гПаоблачносл. дождь
13:00+26ЮВ, 4 м/с47%1014 гПаоблачносл. дождь
14:00+27ЮВ, 4 м/с39%1013 гПаоблачно
15:00+28ЮВ, 5 м/с33%1012 гПаоблачно
16:00+28ЮВ, 6 м/с34%1012 гПаоблачно
17:00+28ЮВ, 6 м/с37%1011 гПаоблачно
18:00+26В, 6 м/с40%1011 гПаоблачно
19:00+25В, 4 м/с45%1011 гПаоблачно
20:00+23В, 3 м/с52%1011 гПаоблачно
21:00+21В, 3 м/с58%1011 гПаоблачно
22:00+21В, 3 м/с60%1011 гПаоблачно
23:00+20В, 4 м/с63%1010 гПаоблачно
23 августа
00:00+20В, 4 м/с64%1009 гПаоблачно
01:00+19В, 3 м/с66%1009 гПаоблачно
02:00+18В, 3 м/с70%1008 гПаоблачно
03:00+17ЮВ, 3 м/с75%1008 гПаоблачно